Time;durP1;ratioP1;P1;durP2;ratioP2;P2;SDS_P1;SDS_P2;PMS_P1;PMS_P2;Temp;Humidity;BMP_temperature;BMP_pressure;BME280_temperature;BME280_humidity;BME280_pressure;Samples;Min_cycle;Max_cycle;Signal;HPM_P1;HPM_P2
2022/01/25 00:15:10;;;;;;;27.30;16.00;;;4.40;99.90;;;;;;5174552;28;20267;-50
2022/01/25 00:26:22;;;;;;;22.10;14.97;;;4.50;99.90;;;;;;5186982;28;21073;-50
2022/01/25 00:29:06;;;;;;;23.57;15.73;;;4.50;99.90;;;;;;5183037;28;20424;-51
2022/01/25 00:31:40;;;;;;;31.57;14.93;;;4.50;99.90;;;;;;5172962;28;20452;-49
2022/01/25 00:34:11;;;;;;;25.00;15.27;;;4.50;99.90;;;;;;5153518;28;20539;-49
2022/01/25 00:36:41;;;;;;;22.37;14.30;;;4.50;99.90;;;;;;5157769;28;20432;-51
2022/01/25 00:39:12;;;;;;;25.07;15.17;;;4.50;99.90;;;;;;5185545;28;20186;-50
2022/01/25 00:41:42;;;;;;;20.40;14.13;;;4.50;99.90;;;;;;5186168;28;20280;-49
2022/01/25 00:44:13;;;;;;;23.20;15.30;;;4.50;99.90;;;;;;5183261;28;20188;-51
2022/01/25 00:46:44;;;;;;;23.60;14.40;;;4.50;99.90;;;;;;5185228;28;20692;-49
2022/01/25 00:49:25;;;;;;;25.50;14.50;;;4.50;99.90;;;;;;5186559;28;20875;-50
2022/01/25 00:54:28;;;;;;;25.23;15.00;;;4.60;99.90;;;;;;5185167;28;20970;-49
2022/01/25 00:56:59;;;;;;;28.60;15.67;;;4.60;99.90;;;;;;5185153;28;20247;-50
2022/01/25 00:59:31;;;;;;;22.83;14.13;;;4.60;99.90;;;;;;5171848;28;20434;-48
2022/01/25 01:02:08;;;;;;;22.10;14.23;;;4.50;99.90;;;;;;5184539;28;20265;-50
2022/01/25 01:04:42;;;;;;;26.83;15.10;;;4.50;99.90;;;;;;5170403;28;20424;-50
2022/01/25 01:07:15;;;;;;;26.93;14.40;;;4.50;99.90;;;;;;5184088;28;20499;-50
2022/01/25 01:09:49;;;;;;;26.10;15.57;;;4.50;99.90;;;;;;5172052;28;20461;-50
2022/01/25 01:12:56;;;;;;;32.13;15.03;;;4.50;99.90;;;;;;5186183;28;20460;-51
2022/01/25 01:15:38;;;;;;;21.03;14.20;;;4.50;99.90;;;;;;5183692;28;20428;-51
2022/01/25 01:32:58;;;;;;;24.87;15.40;;;4.50;99.90;;;;;;5184244;28;20540;-50
2022/01/25 01:38:04;;;;;;;22.70;13.80;;;4.50;99.90;;;;;;5182005;28;20440;-53
2022/01/25 01:43:28;;;;;;;23.13;14.80;;;4.50;99.90;;;;;;5179334;28;20457;-51
2022/01/25 01:48:57;;;;;;;28.07;16.07;;;4.50;99.90;;;;;;5184310;28;20448;-49
2022/01/25 01:51:33;;;;;;;27.33;17.33;;;4.50;99.90;;;;;;5184604;28;20441;-50
2022/01/25 01:54:10;;;;;;;31.30;17.40;;;4.50;99.90;;;;;;5184806;28;20427;-51
2022/01/25 01:56:43;;;;;;;27.87;16.60;;;4.50;99.90;;;;;;5180414;28;20444;-51
2022/01/25 01:59:16;;;;;;;30.87;17.57;;;4.50;99.90;;;;;;5163771;28;20438;-50
2022/01/25 02:01:47;;;;;;;34.80;16.60;;;4.50;99.90;;;;;;5186451;28;20534;-50
2022/01/25 02:04:19;;;;;;;27.97;17.73;;;4.50;99.90;;;;;;5183200;28;20946;-50
2022/01/25 02:06:49;;;;;;;28.53;17.50;;;4.50;99.90;;;;;;5166837;28;20469;-49
2022/01/25 02:09:20;;;;;;;27.47;16.60;;;4.50;99.90;;;;;;5184698;28;20941;-50
2022/01/25 02:11:51;;;;;;;30.60;15.90;;;4.50;99.90;;;;;;5167320;28;20293;-50
2022/01/25 02:14:21;;;;;;;29.10;16.47;;;4.40;99.90;;;;;;5183935;28;20184;-51
2022/01/25 02:17:06;;;;;;;30.17;16.10;;;4.40;99.90;;;;;;5155052;28;20560;-51
2022/01/25 02:22:29;;;;;;;32.10;17.43;;;4.50;99.90;;;;;;5186960;28;20576;-48
2022/01/25 02:25:01;;;;;;;38.97;19.53;;;4.50;99.90;;;;;;5187080;28;20431;-50
2022/01/25 02:27:31;;;;;;;38.87;18.47;;;4.40;99.90;;;;;;5185669;28;20481;-49
2022/01/25 02:30:03;;;;;;;33.83;18.40;;;4.40;99.90;;;;;;5188177;28;20475;-50
2022/01/25 02:32:33;;;;;;;40.87;20.83;;;4.40;99.90;;;;;;5186319;28;20210;-49
2022/01/25 02:35:04;;;;;;;42.00;19.97;;;4.40;99.90;;;;;;5186723;28;20425;-50
2022/01/25 02:37:35;;;;;;;42.73;22.23;;;4.40;99.90;;;;;;5188492;28;20434;-50
2022/01/25 02:40:07;;;;;;;36.37;19.37;;;4.30;99.90;;;;;;5188293;28;20945;-50
2022/01/25 02:42:40;;;;;;;44.37;20.40;;;4.30;99.90;;;;;;5183354;28;20472;-49
2022/01/25 02:45:15;;;;;;;39.43;21.07;;;4.20;99.90;;;;;;5186035;28;20486;-49
2022/01/25 02:50:35;;;;;;;45.40;22.87;;;4.20;99.90;;;;;;5186444;28;20442;-49
2022/01/25 02:53:06;;;;;;;45.90;21.90;;;4.20;99.90;;;;;;5157522;28;20449;-50
2022/01/25 02:55:39;;;;;;;38.80;20.47;;;4.20;99.90;;;;;;5186338;28;20291;-49
2022/01/25 02:58:09;;;;;;;41.50;21.93;;;4.10;99.90;;;;;;5161075;28;20291;-50
2022/01/25 03:00:40;;;;;;;44.50;22.13;;;4.00;99.90;;;;;;5183378;28;20435;-51
2022/01/25 03:03:10;;;;;;;44.20;21.17;;;4.00;99.90;;;;;;5184966;28;20278;-50
2022/01/25 03:05:42;;;;;;;52.00;22.40;;;4.00;99.90;;;;;;5165596;28;20195;-51
2022/01/25 03:08:14;;;;;;;45.33;22.60;;;4.00;99.90;;;;;;5181413;28;20188;-51
2022/01/25 03:10:46;;;;;;;48.93;22.47;;;4.00;99.90;;;;;;5186042;28;20470;-50
2022/01/25 03:13:22;;;;;;;50.43;21.37;;;4.10;99.90;;;;;;5183753;28;20524;-49
2022/01/25 03:15:58;;;;;;;42.20;21.80;;;4.10;99.90;;;;;;5169009;28;20436;-49
2022/01/25 03:23:50;;;;;;;47.93;22.37;;;4.00;99.90;;;;;;5184366;28;20987;-51
2022/01/25 03:26:25;;;;;;;47.17;23.93;;;4.00;99.90;;;;;;5179193;28;20986;-50
2022/01/25 03:28:56;;;;;;;44.13;21.37;;;4.00;99.90;;;;;;5184581;28;20454;-50
2022/01/25 03:31:27;;;;;;;46.90;21.70;;;4.00;99.90;;;;;;5184232;28;20439;-51
2022/01/25 03:33:58;;;;;;;37.50;19.97;;;3.90;99.90;;;;;;5162407;28;20320;-53
2022/01/25 03:36:29;;;;;;;45.17;22.10;;;4.00;99.90;;;;;;5163935;28;20240;-48
2022/01/25 03:38:59;;;;;;;41.30;23.20;;;4.00;99.90;;;;;;5168880;28;20431;-50
2022/01/25 03:41:30;;;;;;;48.90;21.13;;;4.00;99.90;;;;;;5185419;28;20395;-49
2022/01/25 03:44:01;;;;;;;48.03;22.13;;;4.00;99.90;;;;;;5165579;28;20693;-50
2022/01/25 03:46:42;;;;;;;47.30;22.37;;;4.00;99.90;;;;;;5163772;28;20200;-50
2022/01/25 03:52:06;;;;;;;49.77;19.83;;;4.00;99.90;;;;;;5187851;28;21033;-51
2022/01/25 03:54:37;;;;;;;40.73;20.50;;;3.90;99.90;;;;;;5185364;28;20443;-50
2022/01/25 03:57:07;;;;;;;39.40;19.70;;;3.90;99.90;;;;;;5182793;28;20527;-50
2022/01/25 03:59:38;;;;;;;39.17;19.93;;;4.00;99.90;;;;;;5170777;28;20265;-53
2022/01/25 04:02:09;;;;;;;37.63;20.33;;;3.90;99.90;;;;;;5185397;28;20230;-51
2022/01/25 04:04:40;;;;;;;46.47;20.27;;;3.90;99.90;;;;;;5151653;28;20618;-51
2022/01/25 04:07:12;;;;;;;37.90;18.30;;;3.90;99.90;;;;;;5186729;28;20268;-49
2022/01/25 04:09:42;;;;;;;39.00;19.90;;;3.90;99.90;;;;;;5183565;28;20181;-49
2022/01/25 04:12:17;;;;;;;40.27;20.47;;;3.90;99.90;;;;;;5181566;28;20513;-51
2022/01/25 04:14:48;;;;;;;35.43;19.13;;;3.90;99.90;;;;;;5185388;28;20176;-50
2022/01/25 04:17:21;;;;;;;44.60;19.80;;;3.90;99.90;;;;;;5185015;28;20458;-49
2022/01/25 04:20:13;;;;;;;39.27;18.70;;;3.90;99.90;;;;;;5165848;28;20436;-49
2022/01/25 04:25:33;;;;;;;46.83;19.13;;;3.90;99.90;;;;;;5134579;28;20472;-47
2022/01/25 04:28:03;;;;;;;41.83;19.60;;;3.90;99.90;;;;;;5145531;28;20812;-48
2022/01/25 04:30:34;;;;;;;44.07;20.33;;;3.90;99.90;;;;;;5144776;28;20182;-47
2022/01/25 04:33:17;;;;;;;33.83;18.17;;;3.90;99.90;;;;;;5144939;28;20297;-48
2022/01/25 04:36:10;;;;;;;35.63;18.93;;;3.90;99.90;;;;;;5144108;28;20368;-48
2022/01/25 04:50:00;;;;;;;39.10;18.83;;;3.90;99.90;;;;;;5134714;28;20941;-47
2022/01/25 04:52:37;;;;;;;42.67;18.20;;;3.80;99.90;;;;;;5130501;28;20445;-47
2022/01/25 04:55:19;;;;;;;44.43;18.83;;;3.80;99.90;;;;;;5133767;28;20440;-46
2022/01/25 04:57:57;;;;;;;29.63;16.07;;;3.80;99.90;;;;;;5123747;28;20473;-48
2022/01/25 05:00:29;;;;;;;36.97;17.50;;;3.90;99.90;;;;;;5130415;28;20490;-48
2022/01/25 05:03:50;;;;;;;26.20;15.70;;;3.80;99.90;;;;;;5145200;28;20459;-47
2022/01/25 05:06:03;;;;;;;33.90;17.60;;;3.80;99.90;;;;;;5132091;28;20960;-46
2022/01/25 05:08:45;;;;;;;38.83;17.33;;;3.90;99.90;;;;;;5131866;28;20949;-47
2022/01/25 05:11:32;;;;;;;33.23;17.47;;;3.90;99.90;;;;;;5139211;28;20437;-48
2022/01/25 05:17:00;;;;;;;36.43;17.70;;;3.80;99.90;;;;;;5140790;28;20949;-46
2022/01/25 05:22:04;;;;;;;32.77;17.37;;;3.80;99.90;;;;;;5140389;28;20430;-48
2022/01/25 05:22:29;;;;;;;33.40;16.30;;;3.80;99.90;;;;;;5150189;28;20443;-47
2022/01/25 05:24:59;;;;;;;36.57;19.20;;;3.80;99.90;;;;;;5146261;28;20494;-48
2022/01/25 05:27:30;;;;;;;39.90;19.27;;;3.80;99.90;;;;;;5161706;28;20494;-47
2022/01/25 05:30:01;;;;;;;37.60;18.53;;;3.90;99.90;;;;;;5163810;28;20178;-47
2022/01/25 05:32:34;;;;;;;40.70;17.90;;;3.90;99.90;;;;;;5160570;28;20453;-47
2022/01/25 05:35:05;;;;;;;47.00;18.93;;;3.90;99.90;;;;;;5146574;28;20516;-48
2022/01/25 05:37:41;;;;;;;43.17;18.47;;;3.90;99.90;;;;;;5164343;28;20440;-48
2022/01/25 05:40:17;;;;;;;33.37;18.00;;;3.90;99.90;;;;;;5145504;28;20432;-48
2022/01/25 05:48:27;;;;;;;38.57;18.50;;;3.80;99.90;;;;;;5166675;28;20757;-47
2022/01/25 05:50:59;;;;;;;42.57;18.90;;;3.80;99.90;;;;;;5157191;28;20447;-48
2022/01/25 05:53:29;;;;;;;40.10;20.00;;;3.90;99.90;;;;;;5160027;28;20459;-46
2022/01/25 05:56:00;;;;;;;39.00;18.67;;;3.90;99.90;;;;;;5165606;28;20827;-48
2022/01/25 05:58:30;;;;;;;39.57;17.90;;;3.80;99.90;;;;;;5166691;28;20185;-47
2022/01/25 06:01:01;;;;;;;39.70;19.20;;;3.80;99.90;;;;;;5166082;28;20187;-46
2022/01/25 06:03:32;;;;;;;42.23;20.97;;;3.70;99.90;;;;;;5144794;28;20692;-47
2022/01/25 06:06:05;;;;;;;41.83;19.23;;;3.80;99.90;;;;;;5163495;28;20181;-48
2022/01/25 06:08:35;;;;;;;44.33;18.77;;;3.70;99.90;;;;;;5132637;28;20193;-47
2022/01/25 06:11:07;;;;;;;49.43;19.83;;;3.70;99.90;;;;;;5144573;28;21493;-47
2022/01/25 06:13:37;;;;;;;38.83;19.20;;;3.70;99.90;;;;;;5147849;28;20254;-48
2022/01/25 06:16:11;;;;;;;43.70;19.67;;;3.70;99.90;;;;;;5163591;28;20456;-47
2022/01/25 06:18:41;;;;;;;50.07;21.83;;;3.80;99.90;;;;;;5148457;28;20207;-48
2022/01/25 06:21:12;;;;;;;42.93;18.90;;;3.90;99.90;;;;;;5166314;28;22266;-47
2022/01/25 06:23:42;;;;;;;43.60;21.47;;;3.90;99.90;;;;;;5166529;28;20572;-47
2022/01/25 06:26:13;;;;;;;40.63;19.90;;;3.80;99.90;;;;;;5147725;28;20240;-45
2022/01/25 06:28:43;;;;;;;46.00;20.20;;;3.80;99.90;;;;;;5150803;28;20177;-47
2022/01/25 06:31:16;;;;;;;45.47;19.63;;;3.70;99.90;;;;;;5165071;28;20181;-46
2022/01/25 06:33:48;;;;;;;40.83;20.60;;;3.70;99.90;;;;;;5151591;28;20199;-47
2022/01/25 06:36:19;;;;;;;42.20;18.97;;;3.80;99.90;;;;;;5167016;28;20463;-47
2022/01/25 06:38:49;;;;;;;36.57;18.80;;;3.90;99.90;;;;;;5151600;28;20439;-46
2022/01/25 06:41:20;;;;;;;51.87;22.00;;;3.80;99.90;;;;;;5164240;28;20441;-48
2022/01/25 06:43:50;;;;;;;44.27;20.33;;;3.80;99.90;;;;;;5162894;28;20749;-47
2022/01/25 06:46:21;;;;;;;45.53;18.80;;;3.90;99.90;;;;;;5147504;28;20719;-47
2022/01/25 06:48:54;;;;;;;40.43;19.13;;;3.90;99.90;;;;;;5171704;28;20186;-47
2022/01/25 06:51:25;;;;;;;39.23;19.10;;;3.90;99.90;;;;;;5156989;28;20272;-47
2022/01/25 06:53:55;;;;;;;39.73;17.90;;;3.90;99.90;;;;;;5144920;28;20498;-48
2022/01/25 06:56:26;;;;;;;43.80;19.90;;;3.90;99.90;;;;;;5153940;28;20678;-47
2022/01/25 06:58:56;;;;;;;39.67;19.30;;;3.80;99.90;;;;;;5145282;28;20177;-47
2022/01/25 07:01:27;;;;;;;45.73;20.60;;;3.80;99.90;;;;;;5146450;28;20281;-46
2022/01/25 07:03:58;;;;;;;42.43;21.57;;;3.80;99.90;;;;;;5137769;28;20728;-47
2022/01/25 07:06:29;;;;;;;48.90;20.07;;;3.70;99.90;;;;;;5143886;28;20228;-48
2022/01/25 07:09:01;;;;;;;45.07;21.77;;;3.70;99.90;;;;;;5167826;28;20186;-49
2022/01/25 07:11:32;;;;;;;42.40;20.77;;;3.70;99.90;;;;;;5163201;28;20429;-49
2022/01/25 07:14:02;;;;;;;39.60;21.13;;;3.70;99.90;;;;;;5164061;28;20567;-48
2022/01/25 07:16:33;;;;;;;36.73;20.30;;;3.70;99.90;;;;;;5162971;28;20188;-48
2022/01/25 07:19:04;;;;;;;42.50;20.90;;;3.70;99.90;;;;;;5142275;28;20185;-47
2022/01/25 07:21:34;;;;;;;39.57;20.03;;;3.70;99.90;;;;;;5159065;28;20554;-49
2022/01/25 07:24:06;;;;;;;41.13;20.20;;;3.80;99.90;;;;;;5134308;28;20830;-49
2022/01/25 07:26:36;;;;;;;43.93;21.87;;;3.80;99.90;;;;;;5124064;28;20576;-48
2022/01/25 07:29:07;;;;;;;41.63;19.97;;;3.80;99.90;;;;;;5142316;28;20445;-50
2022/01/25 07:31:37;;;;;;;44.27;22.43;;;3.90;99.90;;;;;;5127436;28;20325;-48
2022/01/25 07:34:08;;;;;;;37.50;19.20;;;4.00;99.90;;;;;;5139282;28;20194;-46
2022/01/25 07:36:41;;;;;;;51.97;21.30;;;4.00;99.90;;;;;;5123823;28;20213;-49
2022/01/25 07:39:12;;;;;;;44.87;20.90;;;4.00;99.90;;;;;;5131851;28;20175;-46
2022/01/25 07:41:44;;;;;;;44.80;20.13;;;4.10;99.90;;;;;;5145069;28;20465;-48
2022/01/25 07:44:16;;;;;;;48.93;21.60;;;4.00;99.90;;;;;;5146248;28;20441;-47
2022/01/25 07:46:46;;;;;;;47.07;22.03;;;3.90;99.90;;;;;;5143199;28;20505;-47
2022/01/25 07:49:17;;;;;;;48.43;19.97;;;3.90;99.90;;;;;;5145529;28;20560;-47
2022/01/25 07:51:48;;;;;;;47.13;22.07;;;4.00;99.90;;;;;;5127151;28;20183;-49
2022/01/25 07:54:18;;;;;;;46.97;22.03;;;4.00;99.90;;;;;;5135658;28;20229;-48
2022/01/25 07:56:49;;;;;;;43.00;21.50;;;4.10;99.90;;;;;;5145054;28;20193;-47
2022/01/25 07:59:20;;;;;;;51.23;22.03;;;4.00;99.90;;;;;;5139860;28;20244;-47
2022/01/25 08:01:51;;;;;;;50.17;22.20;;;4.00;99.90;;;;;;5136789;28;20212;-49
2022/01/25 08:04:22;;;;;;;55.37;23.30;;;4.10;99.90;;;;;;5123546;28;20972;-49
2022/01/25 08:06:52;;;;;;;51.53;22.20;;;4.00;99.90;;;;;;5139986;28;20560;-49
2022/01/25 08:09:26;;;;;;;48.90;23.33;;;4.20;99.90;;;;;;5142501;28;20259;-48
2022/01/25 08:11:56;;;;;;;55.40;23.30;;;4.10;99.90;;;;;;5126257;28;20587;-47
2022/01/25 08:14:27;;;;;;;51.97;24.70;;;4.20;99.90;;;;;;5140048;28;20445;-48
2022/01/25 08:16:57;;;;;;;59.50;24.37;;;4.20;99.90;;;;;;5134469;28;20189;-48
2022/01/25 08:19:28;;;;;;;50.43;22.63;;;4.20;99.90;;;;;;5141135;28;20671;-48
2022/01/25 08:21:58;;;;;;;59.07;25.50;;;4.20;99.90;;;;;;5142243;28;20301;-49
2022/01/25 08:24:29;;;;;;;45.30;22.90;;;4.40;99.90;;;;;;5163230;28;20709;-47
2022/01/25 08:27:00;;;;;;;42.67;21.50;;;4.50;99.90;;;;;;5159917;28;20215;-49
2022/01/25 08:29:33;;;;;;;47.90;22.83;;;4.70;99.90;;;;;;5139875;28;20978;-48
2022/01/25 08:32:05;;;;;;;46.53;23.07;;;4.80;99.90;;;;;;5162871;28;20222;-48
2022/01/25 08:34:36;;;;;;;55.00;24.87;;;4.80;99.90;;;;;;5158430;28;20441;-49
2022/01/25 08:37:06;;;;;;;47.83;25.07;;;4.90;99.90;;;;;;5147460;28;20807;-48
2022/01/25 08:39:37;;;;;;;57.37;25.23;;;4.90;99.90;;;;;;5153715;28;20682;-48
2022/01/25 08:42:08;;;;;;;47.53;24.90;;;4.80;99.90;;;;;;5159505;28;20216;-48
2022/01/25 08:44:39;;;;;;;45.87;23.73;;;4.90;99.90;;;;;;5141180;28;20202;-48
2022/01/25 08:47:11;;;;;;;44.40;21.90;;;4.90;99.90;;;;;;5156847;28;20553;-49
2022/01/25 08:49:42;;;;;;;51.33;23.40;;;5.00;99.90;;;;;;5159251;28;20181;-48
2022/01/25 08:52:12;;;;;;;52.93;24.13;;;4.90;99.90;;;;;;5158577;28;20455;-47
2022/01/25 08:54:43;;;;;;;46.80;21.47;;;4.80;99.90;;;;;;5161123;28;20944;-47
2022/01/25 08:57:13;;;;;;;43.27;21.07;;;4.80;99.90;;;;;;5159354;28;20219;-50
2022/01/25 08:59:44;;;;;;;44.57;21.30;;;4.90;99.90;;;;;;5154127;28;20238;-48
2022/01/25 09:02:15;;;;;;;47.47;22.90;;;4.90;99.90;;;;;;5156309;28;20228;-49
2022/01/25 09:04:45;;;;;;;51.90;23.90;;;4.90;99.90;;;;;;5143933;28;20198;-48
2022/01/25 09:07:16;;;;;;;46.43;21.63;;;5.00;99.90;;;;;;5142977;28;20243;-47
2022/01/25 09:09:47;;;;;;;49.77;22.57;;;4.90;99.90;;;;;;5142571;28;20192;-47
2022/01/25 09:12:17;;;;;;;44.23;21.53;;;4.80;99.90;;;;;;5138649;28;20202;-48
2022/01/25 09:14:48;;;;;;;43.80;22.40;;;4.80;99.90;;;;;;5144051;28;20435;-48
2022/01/25 09:17:19;;;;;;;46.00;21.00;;;4.80;99.90;;;;;;5138290;28;20259;-48
2022/01/25 09:19:49;;;;;;;45.50;21.03;;;4.70;99.90;;;;;;5142023;28;20218;-49
2022/01/25 09:22:20;;;;;;;47.27;20.23;;;4.70;99.90;;;;;;5154505;28;20256;-47
2022/01/25 09:24:50;;;;;;;51.73;22.07;;;4.70;99.90;;;;;;5138367;28;20196;-49
2022/01/25 09:27:21;;;;;;;47.90;21.87;;;4.70;99.90;;;;;;5140757;28;20312;-49
2022/01/25 09:29:52;;;;;;;43.10;21.10;;;4.90;99.90;;;;;;5139049;28;20245;-49
2022/01/25 09:32:22;;;;;;;49.90;23.13;;;5.00;99.90;;;;;;5136862;28;20258;-49
2022/01/25 09:34:53;;;;;;;46.47;20.67;;;5.00;99.90;;;;;;5145872;28;20224;-50
2022/01/25 09:37:23;;;;;;;42.80;20.50;;;4.90;99.90;;;;;;5141720;28;20705;-49
2022/01/25 09:39:54;;;;;;;43.57;19.73;;;5.00;99.90;;;;;;5128594;28;20282;-48
2022/01/25 09:42:28;;;;;;;53.03;22.20;;;5.00;99.90;;;;;;5146999;28;20730;-48
2022/01/25 09:44:59;;;;;;;53.03;20.90;;;4.90;99.90;;;;;;5138393;28;20183;-50
2022/01/25 09:47:30;;;;;;;42.90;19.73;;;5.00;99.90;;;;;;5129558;28;20474;-48
2022/01/25 09:50:01;;;;;;;41.80;21.50;;;4.90;99.90;;;;;;5146286;28;20446;-49
2022/01/25 09:52:31;;;;;;;44.83;21.60;;;4.90;99.90;;;;;;5144300;28;20577;-48
2022/01/25 09:55:09;;;;;;;51.83;21.37;;;4.90;99.90;;;;;;5129007;28;20201;-49
2022/01/25 09:57:41;;;;;;;46.40;22.20;;;4.80;99.90;;;;;;5127745;28;20183;-48
2022/01/25 10:00:14;;;;;;;43.67;19.83;;;4.90;99.90;;;;;;5145161;28;20473;-50
2022/01/25 10:03:15;;;;;;;44.27;21.20;;;4.80;99.90;;;;;;5121432;28;20451;-47
2022/01/25 10:05:48;;;;;;;37.50;19.60;;;4.80;99.90;;;;;;5142898;28;20968;-47
2022/01/25 10:08:26;;;;;;;40.47;18.50;;;5.10;99.90;;;;;;5121947;28;20475;-48
2022/01/25 10:11:00;;;;;;;42.70;19.50;;;5.30;99.90;;;;;;5122138;28;20482;-49
2022/01/25 10:13:46;;;;;;;44.47;20.20;;;5.40;99.90;;;;;;5145054;28;20448;-48
2022/01/25 10:16:20;;;;;;;44.80;17.87;;;5.30;99.90;;;;;;5126751;28;20486;-49
2022/01/25 10:18:57;;;;;;;38.80;19.47;;;5.30;99.90;;;;;;5144086;28;20586;-49
2022/01/25 10:21:33;;;;;;;42.27;17.33;;;5.20;99.90;;;;;;5125031;28;20477;-47
2022/01/25 10:24:07;;;;;;;36.47;18.47;;;5.20;99.90;;;;;;5142978;28;20485;-47
2022/01/25 10:26:48;;;;;;;31.17;16.33;;;5.20;99.90;;;;;;5140875;28;20474;-48
2022/01/25 10:29:31;;;;;;;37.70;18.53;;;5.10;99.90;;;;;;5138143;28;20443;-49
2022/01/25 10:32:09;;;;;;;38.53;18.40;;;5.00;99.90;;;;;;5137831;28;20462;-49
2022/01/25 10:34:44;;;;;;;33.77;17.67;;;5.00;99.90;;;;;;5142894;28;20443;-47
2022/01/25 10:37:17;;;;;;;38.57;18.07;;;5.10;99.90;;;;;;5144915;28;20816;-48
2022/01/25 10:39:52;;;;;;;38.27;15.93;;;5.10;99.90;;;;;;5143107;28;21044;-47
2022/01/25 10:42:31;;;;;;;34.60;16.83;;;5.00;99.90;;;;;;5142559;28;20461;-48
2022/01/25 10:45:07;;;;;;;39.07;17.53;;;4.90;99.90;;;;;;5135223;28;20439;-48
2022/01/25 10:47:45;;;;;;;31.43;16.87;;;5.00;99.90;;;;;;5139594;28;20474;-48
2022/01/25 10:50:35;;;;;;;35.63;15.33;;;4.80;99.90;;;;;;5158344;28;20431;-48
2022/01/25 10:53:17;;;;;;;30.63;17.17;;;4.90;99.90;;;;;;5137771;28;20455;-47
2022/01/25 10:55:51;;;;;;;34.53;16.70;;;5.00;99.90;;;;;;5135774;28;20527;-48
2022/01/25 10:58:23;;;;;;;34.00;16.30;;;5.20;99.90;;;;;;5141535;28;20438;-49
2022/01/25 11:00:55;;;;;;;33.63;15.13;;;5.30;99.90;;;;;;5153954;28;20453;-48
2022/01/25 11:03:29;;;;;;;32.70;15.30;;;5.10;99.90;;;;;;5141495;28;20688;-49
2022/01/25 11:06:20;;;;;;;34.07;15.20;;;5.20;99.90;;;;;;5138712;28;20442;-48
2022/01/25 11:08:53;;;;;;;33.20;14.20;;;5.40;99.90;;;;;;5138018;28;20503;-47
2022/01/25 11:11:32;;;;;;;34.00;15.20;;;5.40;99.90;;;;;;5139723;28;20646;-48
2022/01/25 11:16:53;;;;;;;24.00;13.10;;;5.40;99.90;;;;;;5135796;28;20494;-48
2022/01/25 11:19:25;;;;;;;33.17;15.33;;;5.40;99.90;;;;;;5142268;28;20939;-50
2022/01/25 11:21:58;;;;;;;31.93;15.40;;;5.20;99.90;;;;;;5142445;28;20517;-49
2022/01/25 11:24:31;;;;;;;34.30;15.23;;;5.10;99.90;;;;;;5134463;28;20440;-49
2022/01/25 11:27:05;;;;;;;28.70;14.20;;;5.20;99.90;;;;;;5120551;28;20576;-48
2022/01/25 11:29:39;;;;;;;31.93;14.70;;;5.10;99.90;;;;;;5137826;28;20451;-47
2022/01/25 11:32:14;;;;;;;35.37;16.93;;;5.30;99.90;;;;;;5124319;28;20541;-47
2022/01/25 11:34:47;;;;;;;36.00;14.77;;;5.30;99.90;;;;;;5135381;28;20442;-49
2022/01/25 11:37:17;;;;;;;27.53;14.17;;;5.40;99.90;;;;;;5142698;28;20446;-50
2022/01/25 11:39:49;;;;;;;34.87;16.33;;;5.40;99.90;;;;;;5143625;28;20434;-50
2022/01/25 11:42:25;;;;;;;27.30;14.37;;;5.50;99.90;;;;;;5143689;28;20222;-50
2022/01/25 11:44:58;;;;;;;28.77;15.60;;;5.50;99.90;;;;;;5120883;28;20444;-49
2022/01/25 11:47:36;;;;;;;35.30;17.03;;;5.40;99.90;;;;;;5141569;28;20467;-47
2022/01/25 11:50:09;;;;;;;36.57;16.77;;;5.30;99.90;;;;;;5142820;28;20499;-49
2022/01/25 11:52:53;;;;;;;28.53;14.63;;;5.20;99.90;;;;;;5125800;28;20451;-48
2022/01/25 11:55:33;;;;;;;32.20;14.97;;;5.10;99.90;;;;;;5124943;28;20448;-48
2022/01/25 11:58:13;;;;;;;30.67;13.90;;;5.10;99.90;;;;;;5143471;28;20448;-47
2022/01/25 12:00:50;;;;;;;32.37;14.40;;;5.10;99.90;;;;;;5144255;28;20438;-47
2022/01/25 12:03:46;;;;;;;26.97;12.87;;;5.20;99.90;;;;;;5143553;28;20637;-48
2022/01/25 12:06:26;;;;;;;28.57;12.43;;;5.30;99.90;;;;;;5140833;28;20555;-49
2022/01/25 12:11:58;;;;;;;35.63;14.17;;;5.20;99.90;;;;;;5129569;28;20844;-48
2022/01/25 12:14:31;;;;;;;30.73;14.70;;;5.30;99.90;;;;;;5142687;28;20494;-48
2022/01/25 12:17:01;;;;;;;26.00;13.60;;;5.20;99.90;;;;;;5111504;28;20436;-47
2022/01/25 12:19:44;;;;;;;30.70;15.00;;;5.10;99.90;;;;;;5129678;28;20452;-48
2022/01/25 12:22:29;;;;;;;27.03;12.37;;;5.20;99.90;;;;;;5138149;28;20231;-48
2022/01/25 12:25:27;;;;;;;51.10;19.30;;;5.20;99.90;;;;;;5137104;28;20454;-48
2022/01/25 12:28:07;;;;;;;31.60;14.60;;;5.20;99.90;;;;;;5143879;28;20473;-48
2022/01/25 12:30:44;;;;;;;21.10;11.77;;;5.30;99.90;;;;;;5118374;28;20454;-49
2022/01/25 12:33:28;;;;;;;23.43;12.70;;;5.30;99.90;;;;;;5130485;28;20521;-51
2022/01/25 12:36:05;;;;;;;22.50;11.97;;;5.30;99.90;;;;;;5141749;28;21194;-47
2022/01/25 12:38:51;;;;;;;31.33;13.93;;;5.20;99.90;;;;;;5145581;28;20451;-48
2022/01/25 12:41:23;;;;;;;27.03;13.23;;;5.20;99.90;;;;;;5144550;28;20440;-47
2022/01/25 12:43:57;;;;;;;24.43;12.33;;;5.10;99.90;;;;;;5141876;28;20454;-47
2022/01/25 12:46:30;;;;;;;40.77;15.50;;;5.20;99.90;;;;;;5126267;28;20995;-47
2022/01/25 12:49:04;;;;;;;29.93;13.53;;;5.10;99.90;;;;;;5141839;28;20759;-47
2022/01/25 12:51:37;;;;;;;33.17;15.33;;;5.10;99.90;;;;;;5125802;28;20813;-47
2022/01/25 12:54:10;;;;;;;36.33;15.30;;;5.00;99.90;;;;;;5108141;28;20450;-48
2022/01/25 12:56:46;;;;;;;28.33;13.97;;;5.00;99.90;;;;;;5137750;28;20852;-48
2022/01/25 12:59:29;;;;;;;39.57;15.40;;;5.00;99.90;;;;;;5135303;28;20503;-47
2022/01/25 13:02:01;;;;;;;36.13;16.70;;;5.00;99.90;;;;;;5132842;28;20471;-47
2022/01/25 13:04:32;;;;;;;38.57;18.60;;;5.10;99.90;;;;;;5133304;28;20434;-48
2022/01/25 13:07:03;;;;;;;35.17;17.20;;;5.10;99.90;;;;;;5104784;28;21039;-46
2022/01/25 13:09:41;;;;;;;46.63;19.77;;;5.10;99.90;;;;;;5130710;28;20467;-48
2022/01/25 13:12:24;;;;;;;33.87;17.13;;;5.00;99.90;;;;;;5128596;28;20242;-47
2022/01/25 13:15:27;;;;;;;40.93;16.97;;;5.00;99.90;;;;;;5140385;28;20425;-47
2022/01/25 13:18:09;;;;;;;47.10;19.00;;;5.00;99.90;;;;;;5141470;28;20428;-48
2022/01/25 13:20:42;;;;;;;45.17;21.00;;;5.10;99.90;;;;;;5138006;28;20942;-47
2022/01/25 13:23:13;;;;;;;58.67;22.57;;;5.10;99.90;;;;;;5130448;28;20932;-47
2022/01/25 13:26:07;;;;;;;46.17;17.03;;;5.10;99.90;;;;;;5134423;28;21138;-48
2022/01/25 13:28:55;;;;;;;50.40;21.83;;;5.20;99.90;;;;;;5131073;28;20440;-48
2022/01/25 13:31:26;;;;;;;41.13;16.57;;;5.20;99.90;;;;;;5142580;28;20541;-47
2022/01/25 13:34:01;;;;;;;41.57;17.63;;;5.20;99.90;;;;;;5137508;28;20613;-47
2022/01/25 13:36:33;;;;;;;36.67;17.60;;;5.30;99.90;;;;;;5121920;28;20209;-48
2022/01/25 13:39:11;;;;;;;40.30;17.10;;;5.30;99.90;;;;;;5123316;28;21253;-48
2022/01/25 13:41:52;;;;;;;38.57;18.47;;;5.40;99.90;;;;;;5135555;28;20523;-49
2022/01/25 13:47:11;;;;;;;37.77;17.70;;;5.20;99.90;;;;;;5134902;28;21417;-48
2022/01/25 13:49:42;;;;;;;43.87;19.93;;;5.20;99.90;;;;;;5139180;28;20436;-48
2022/01/25 13:52:13;;;;;;;31.53;16.17;;;5.20;99.90;;;;;;5140780;28;20218;-48
2022/01/25 13:54:44;;;;;;;38.70;19.17;;;5.20;99.90;;;;;;5124047;28;20427;-50
2022/01/25 13:57:14;;;;;;;40.77;16.73;;;5.20;99.90;;;;;;5121585;28;20287;-48
2022/01/25 13:59:47;;;;;;;38.47;15.97;;;5.10;99.90;;;;;;5130802;28;20581;-48
2022/01/25 14:02:17;;;;;;;38.90;19.57;;;5.00;99.90;;;;;;5137241;28;20270;-49
2022/01/25 14:04:59;;;;;;;36.70;17.53;;;5.10;99.90;;;;;;5135810;28;20574;-48
2022/01/25 14:07:37;;;;;;;28.60;16.00;;;5.20;99.90;;;;;;5139552;28;20310;-48
2022/01/25 14:10:18;;;;;;;37.80;18.03;;;5.10;99.90;;;;;;5138260;28;21987;-48
2022/01/25 14:21:41;;;;;;;36.33;18.07;;;5.10;99.90;;;;;;5144159;28;20459;-50
2022/01/25 14:24:11;;;;;;;46.77;17.50;;;5.00;99.90;;;;;;5133735;28;20465;-47
2022/01/25 14:26:43;;;;;;;33.77;16.63;;;5.00;99.90;;;;;;5139955;28;20466;-48
2022/01/25 14:29:18;;;;;;;36.63;16.20;;;5.00;99.90;;;;;;5144620;28;20186;-48
2022/01/25 14:31:49;;;;;;;42.07;18.00;;;5.00;99.90;;;;;;5144658;28;20830;-49
2022/01/25 14:34:20;;;;;;;39.87;17.73;;;5.00;99.90;;;;;;5140652;28;20440;-48
2022/01/25 14:36:51;;;;;;;43.33;18.60;;;5.10;99.90;;;;;;5140756;28;20191;-48
2022/01/25 14:39:21;;;;;;;42.13;19.43;;;5.10;99.90;;;;;;5144349;28;20927;-48
2022/01/25 14:41:52;;;;;;;38.50;19.10;;;5.10;99.90;;;;;;5139231;28;20206;-48
2022/01/25 14:44:24;;;;;;;45.13;18.30;;;5.00;99.90;;;;;;5138968;28;20194;-47
2022/01/25 14:46:54;;;;;;;37.23;18.07;;;5.00;99.90;;;;;;5143011;28;20218;-47
2022/01/25 14:49:31;;;;;;;34.50;16.27;;;5.10;99.90;;;;;;5142756;28;20964;-48
2022/01/25 14:52:06;;;;;;;28.03;14.93;;;5.00;99.90;;;;;;5139125;28;20233;-47